Time;durP1;ratioP1;P1;durP2;ratioP2;P2;SDS_P1;SDS_P2;PMS_P1;PMS_P2;Temp;Humidity;BMP_temperature;BMP_pressure;BME280_temperature;BME280_humidity;BME280_pressure;Samples;Min_cycle;Max_cycle;Signal;HPM_P1;HPM_P2
2023/04/09 00:01:41;;;;;;;95.93;56.90;;;8.40;99.90;;;;;;5075979;28;20045;-23
2023/04/09 00:04:07;;;;;;;101.13;55.53;;;8.40;99.90;;;;;;5075686;28;20372;-24
2023/04/09 00:06:32;;;;;;;92.38;53.28;;;8.40;99.90;;;;;;5075631;28;20041;-23
2023/04/09 00:08:58;;;;;;;99.72;58.00;;;8.40;99.90;;;;;;5075783;28;20485;-23
2023/04/09 00:11:24;;;;;;;99.63;56.55;;;8.40;99.90;;;;;;5075269;28;20085;-23
2023/04/09 00:13:50;;;;;;;111.47;59.10;;;8.30;99.90;;;;;;5075200;28;20131;-23
2023/04/09 00:16:16;;;;;;;113.13;60.30;;;8.30;99.90;;;;;;5075124;28;20140;-23
2023/04/09 00:18:41;;;;;;;118.75;61.30;;;8.30;99.90;;;;;;5074166;28;20090;-23
2023/04/09 00:21:07;;;;;;;109.57;60.05;;;8.30;99.90;;;;;;5075867;28;20451;-23
2023/04/09 00:23:34;;;;;;;113.28;62.53;;;8.20;99.90;;;;;;5075074;28;20067;-23
2023/04/09 00:26:00;;;;;;;110.60;60.13;;;8.20;99.90;;;;;;5056989;28;20052;-25
2023/04/09 00:28:25;;;;;;;114.93;59.05;;;8.20;99.90;;;;;;5075437;28;20056;-23
2023/04/09 00:30:51;;;;;;;105.70;57.58;;;8.20;99.90;;;;;;5056998;28;20048;-23
2023/04/09 00:33:17;;;;;;;111.95;59.90;;;8.10;99.90;;;;;;5075302;28;20084;-23
2023/04/09 00:35:42;;;;;;;104.13;58.13;;;8.20;99.90;;;;;;5057095;28;20135;-23
2023/04/09 00:38:08;;;;;;;108.82;57.70;;;8.20;99.90;;;;;;5074588;28;20047;-23
2023/04/09 00:40:34;;;;;;;107.72;57.40;;;8.20;99.90;;;;;;5074937;28;20181;-23
2023/04/09 00:43:01;;;;;;;104.90;56.70;;;8.10;99.90;;;;;;5074280;28;20152;-23
2023/04/09 00:45:27;;;;;;;101.90;55.13;;;8.10;99.90;;;;;;5056918;28;20084;-23
2023/04/09 00:47:52;;;;;;;106.90;56.33;;;8.10;99.90;;;;;;5074497;28;20134;-23
2023/04/09 00:50:18;;;;;;;89.72;53.22;;;8.10;99.90;;;;;;5074192;28;20048;-23
2023/04/09 00:52:44;;;;;;;93.72;49.72;;;8.10;99.90;;;;;;5074965;28;20048;-23
2023/04/09 00:55:11;;;;;;;95.15;49.28;;;8.00;99.90;;;;;;5056541;28;20041;-23
2023/04/09 00:57:37;;;;;;;92.78;50.30;;;8.00;99.90;;;;;;5074256;28;20037;-23
2023/04/09 01:00:03;;;;;;;92.88;50.28;;;8.00;99.90;;;;;;5074324;28;20040;-23
2023/04/09 01:02:30;;;;;;;88.00;48.78;;;8.00;99.90;;;;;;5075105;28;20078;-23
2023/04/09 01:04:56;;;;;;;97.03;51.13;;;7.90;99.90;;;;;;5074210;28;20075;-23
2023/04/09 01:07:36;;;;;;;84.93;48.50;;;7.90;99.90;;;;;;5074197;28;20044;-24
2023/04/09 01:10:14;;;;;;;88.10;50.15;;;7.90;99.90;;;;;;5074383;28;20131;-23
2023/04/09 01:12:57;;;;;;;87.53;46.90;;;7.90;99.90;;;;;;5074123;28;20055;-23
2023/04/09 01:15:30;;;;;;;91.13;48.55;;;7.90;99.90;;;;;;5056431;28;20040;-23
2023/04/09 01:18:06;;;;;;;89.88;48.70;;;7.90;99.90;;;;;;5056173;28;20044;-23
2023/04/09 01:20:41;;;;;;;95.65;49.10;;;7.80;99.90;;;;;;5074548;28;20110;-23
2023/04/09 01:23:36;;;;;;;85.65;48.55;;;7.90;99.90;;;;;;5056340;28;20092;-23
2023/04/09 01:26:02;;;;;;;88.88;48.28;;;7.90;99.90;;;;;;5062982;28;20483;-23
2023/04/09 01:28:44;;;;;;;88.10;47.85;;;7.80;99.90;;;;;;5073669;28;20102;-23
2023/04/09 01:31:16;;;;;;;78.13;43.60;;;7.90;99.90;;;;;;5039912;28;20044;-23
2023/04/09 01:33:42;;;;;;;80.63;43.45;;;7.90;99.90;;;;;;5073814;28;20055;-23
2023/04/09 01:36:09;;;;;;;74.05;43.67;;;7.90;99.90;;;;;;5074577;28;20041;-23
2023/04/09 01:38:38;;;;;;;74.13;41.60;;;7.80;99.90;;;;;;5055855;28;20044;-23
2023/04/09 01:41:07;;;;;;;69.18;39.50;;;7.80;99.90;;;;;;5073645;28;20482;-23
2023/04/09 01:43:33;;;;;;;73.75;41.88;;;7.80;99.90;;;;;;5074535;28;20473;-24
2023/04/09 01:46:01;;;;;;;73.07;41.10;;;7.80;99.90;;;;;;5055982;28;20052;-23
2023/04/09 01:48:29;;;;;;;80.50;41.70;;;7.80;99.90;;;;;;5039311;28;20098;-23
2023/04/09 01:50:55;;;;;;;72.57;40.40;;;7.80;99.90;;;;;;5055929;28;20051;-23
2023/04/09 01:53:21;;;;;;;67.05;38.47;;;7.80;99.90;;;;;;5074399;28;20423;-23
2023/04/09 01:55:47;;;;;;;71.15;39.58;;;7.80;99.90;;;;;;5056122;28;20072;-23
2023/04/09 01:58:13;;;;;;;67.18;37.95;;;7.80;99.90;;;;;;5074261;28;20047;-23
2023/04/09 02:00:45;;;;;;;60.17;34.67;;;7.80;99.90;;;;;;5073471;28;20040;-23
2023/04/09 02:03:28;;;;;;;58.58;33.95;;;7.80;99.90;;;;;;5073259;28;20410;-23
2023/04/09 02:06:16;;;;;;;59.53;35.72;;;7.80;99.90;;;;;;5074109;28;20123;-23
2023/04/09 02:08:46;;;;;;;56.83;32.15;;;7.80;99.90;;;;;;5012196;28;20049;-23
2023/04/09 02:11:13;;;;;;;59.60;32.35;;;7.70;99.90;;;;;;5073393;28;20045;-23
2023/04/09 02:13:41;;;;;;;53.25;33.38;;;7.70;99.90;;;;;;5073386;28;20044;-23
2023/04/09 02:16:09;;;;;;;55.72;32.33;;;7.70;99.90;;;;;;5073389;28;20052;-23
2023/04/09 02:18:35;;;;;;;54.83;29.85;;;7.70;99.90;;;;;;5055402;28;20049;-23
2023/04/09 02:21:01;;;;;;;50.85;32.15;;;7.70;99.90;;;;;;5055625;28;20045;-23
2023/04/09 02:23:27;;;;;;;51.72;31.48;;;7.70;99.90;;;;;;5056472;28;20094;-23
2023/04/09 02:25:53;;;;;;;51.42;32.70;;;7.70;99.90;;;;;;5072893;28;20045;-23
2023/04/09 02:28:19;;;;;;;54.30;31.70;;;7.60;99.90;;;;;;5055599;28;20057;-23
2023/04/09 02:30:44;;;;;;;59.33;34.33;;;7.60;99.90;;;;;;5073767;28;20132;-23
2023/04/09 02:33:10;;;;;;;54.92;32.30;;;7.60;99.90;;;;;;5073444;28;20056;-23
2023/04/09 02:35:36;;;;;;;56.33;32.95;;;7.60;99.90;;;;;;5073172;28;20044;-23
2023/04/09 02:38:02;;;;;;;54.78;33.15;;;7.60;99.90;;;;;;5073058;28;20045;-23
2023/04/09 02:40:28;;;;;;;59.47;33.65;;;7.60;99.90;;;;;;5073773;28;20127;-23
2023/04/09 02:42:54;;;;;;;57.90;34.55;;;7.60;99.90;;;;;;5076956;28;20130;-23
2023/04/09 02:45:19;;;;;;;62.78;34.30;;;7.60;99.90;;;;;;5076885;28;20040;-23
2023/04/09 02:47:45;;;;;;;57.35;34.03;;;7.50;99.90;;;;;;5077637;28;20060;-23
2023/04/09 02:50:11;;;;;;;59.58;34.75;;;7.50;99.90;;;;;;5076809;28;20502;-23
2023/04/09 02:52:36;;;;;;;59.40;34.38;;;7.50;99.90;;;;;;5076748;28;20134;-23
2023/04/09 02:55:02;;;;;;;56.42;33.30;;;7.50;99.90;;;;;;5076983;28;20048;-23
2023/04/09 02:57:28;;;;;;;60.28;33.15;;;7.50;99.90;;;;;;5076593;28;20049;-23
2023/04/09 02:59:54;;;;;;;57.00;33.13;;;7.40;99.90;;;;;;5076693;28;20139;-23
2023/04/09 03:02:20;;;;;;;53.55;32.50;;;7.40;99.90;;;;;;5042396;28;20056;-23
2023/04/09 03:04:46;;;;;;;56.60;33.30;;;7.40;99.90;;;;;;5076235;28;20045;-23
2023/04/09 03:07:12;;;;;;;58.63;33.00;;;7.40;99.90;;;;;;5058715;28;20047;-23
2023/04/09 03:09:37;;;;;;;55.67;33.60;;;7.40;99.90;;;;;;5076450;28;20036;-23
2023/04/09 03:12:03;;;;;;;55.78;32.13;;;7.30;99.90;;;;;;5058625;28;20045;-23
2023/04/09 03:14:29;;;;;;;58.95;33.10;;;7.40;99.90;;;;;;5059051;28;20040;-23
2023/04/09 03:16:54;;;;;;;50.45;29.92;;;7.30;99.90;;;;;;5077142;28;20534;-23
2023/04/09 03:19:20;;;;;;;57.65;32.80;;;7.30;99.90;;;;;;5058400;28;20524;-23
2023/04/09 03:21:48;;;;;;;58.38;32.28;;;7.30;99.90;;;;;;5077048;28;20056;-23
2023/04/09 03:24:14;;;;;;;56.38;33.15;;;7.30;99.90;;;;;;5058166;28;20060;-23
2023/04/09 03:26:40;;;;;;;54.40;30.15;;;7.30;99.90;;;;;;5076032;28;20091;-23
2023/04/09 03:29:06;;;;;;;49.78;29.70;;;7.30;99.90;;;;;;5076952;28;20118;-23
2023/04/09 03:31:32;;;;;;;50.22;29.67;;;7.20;99.90;;;;;;5076589;28;20036;-24
2023/04/09 03:33:58;;;;;;;53.15;30.75;;;7.20;99.90;;;;;;5076049;28;20413;-23
2023/04/09 03:36:24;;;;;;;53.03;31.75;;;7.20;99.90;;;;;;5075991;28;20048;-23
2023/04/09 03:38:50;;;;;;;52.65;30.75;;;7.10;99.90;;;;;;5075862;28;20084;-23
2023/04/09 03:41:15;;;;;;;61.53;30.75;;;7.10;99.90;;;;;;5058070;28;20134;-23
2023/04/09 03:43:41;;;;;;;54.85;30.15;;;7.10;99.90;;;;;;5058088;28;20368;-24
2023/04/09 03:46:17;;;;;;;52.28;30.95;;;7.10;99.90;;;;;;5076392;28;20044;-24
2023/04/09 03:48:43;;;;;;;57.22;32.13;;;7.00;99.90;;;;;;5058618;28;20044;-23
2023/04/09 03:51:16;;;;;;;48.00;28.55;;;6.90;99.90;;;;;;5075678;28;20102;-23
2023/04/09 03:53:42;;;;;;;49.13;29.92;;;6.90;99.90;;;;;;5058092;28;20398;-23
2023/04/09 03:56:08;;;;;;;54.40;29.90;;;6.90;99.90;;;;;;5075316;28;20510;-23
2023/04/09 03:58:34;;;;;;;56.15;32.50;;;6.80;99.90;;;;;;5075507;28;20037;-23
2023/04/09 04:01:00;;;;;;;50.05;30.10;;;6.90;99.90;;;;;;5075480;28;20389;-23
2023/04/09 04:07:07;;;;;;;53.88;28.63;;;6.80;99.90;;;;;;5071197;28;20048;-22
2023/04/09 04:09:33;;;;;;;54.83;29.73;;;6.80;99.90;;;;;;5054001;28;20040;-23
2023/04/09 04:12:01;;;;;;;57.10;30.45;;;6.80;99.90;;;;;;5071899;28;20052;-23
2023/04/09 04:14:26;;;;;;;53.25;31.08;;;6.80;99.90;;;;;;5072430;28;20053;-23
2023/04/09 04:16:52;;;;;;;53.47;29.27;;;6.70;99.90;;;;;;5073203;28;20045;-23
2023/04/09 04:19:18;;;;;;;52.83;29.92;;;6.80;99.90;;;;;;5054003;28;20072;-23
2023/04/09 04:21:43;;;;;;;54.00;29.10;;;6.80;99.90;;;;;;5054561;28;20036;-22
2023/04/09 04:24:09;;;;;;;49.03;28.45;;;6.70;99.90;;;;;;5071643;28;20037;-23
2023/04/09 04:26:35;;;;;;;52.58;29.00;;;6.80;99.90;;;;;;5054735;28;20080;-23
2023/04/09 04:29:00;;;;;;;49.50;29.35;;;6.80;99.90;;;;;;5055244;28;20394;-23
2023/04/09 04:31:26;;;;;;;52.97;29.23;;;6.80;99.90;;;;;;5053056;28;20109;-23
2023/04/09 04:33:52;;;;;;;57.47;31.67;;;6.80;99.90;;;;;;5072680;28;20067;-23
2023/04/09 04:36:17;;;;;;;60.05;31.83;;;6.80;99.90;;;;;;5053991;28;20495;-22
2023/04/09 04:38:43;;;;;;;51.67;28.98;;;6.80;99.90;;;;;;5054652;28;20048;-23
2023/04/09 04:41:10;;;;;;;54.60;30.60;;;6.80;99.90;;;;;;5071741;28;20436;-22
2023/04/09 04:43:36;;;;;;;51.80;31.17;;;6.90;99.90;;;;;;5071770;28;20048;-23
2023/04/09 04:46:01;;;;;;;55.28;32.55;;;6.90;99.90;;;;;;5050651;28;20086;-23
2023/04/09 04:48:28;;;;;;;53.03;30.20;;;6.90;99.90;;;;;;5072386;28;20055;-23
2023/04/09 04:50:55;;;;;;;59.47;31.90;;;7.00;99.90;;;;;;5053819;28;20505;-23
2023/04/09 04:53:21;;;;;;;49.95;29.80;;;7.00;99.90;;;;;;5072561;28;20133;-23
2023/04/09 04:55:47;;;;;;;60.22;33.00;;;7.00;99.90;;;;;;5054652;28;20067;-23
2023/04/09 04:58:13;;;;;;;54.63;31.13;;;7.00;99.90;;;;;;5033693;28;20037;-23
2023/04/09 05:00:38;;;;;;;57.40;32.60;;;7.00;99.90;;;;;;5071435;28;20046;-23
2023/04/09 05:03:04;;;;;;;59.78;31.58;;;7.00;99.90;;;;;;5047524;28;20501;-23
2023/04/09 05:05:30;;;;;;;56.45;31.70;;;7.10;99.90;;;;;;5053443;28;20044;-23
2023/04/09 05:07:56;;;;;;;61.53;33.13;;;7.10;99.90;;;;;;5054425;28;20044;-23
2023/04/09 05:10:22;;;;;;;53.17;31.58;;;7.10;99.90;;;;;;5070456;28;20577;-23
2023/04/09 05:12:47;;;;;;;61.30;33.35;;;7.10;99.90;;;;;;5071757;28;20079;-23
2023/04/09 05:15:13;;;;;;;58.20;32.85;;;7.20;99.90;;;;;;5053348;28;20112;-23
2023/04/09 05:17:42;;;;;;;57.60;33.67;;;7.20;99.90;;;;;;5050934;28;20045;-23
2023/04/09 05:20:08;;;;;;;69.75;35.25;;;7.20;99.90;;;;;;5070601;28;20037;-23
2023/04/09 05:22:35;;;;;;;58.05;33.53;;;7.20;99.90;;;;;;5071407;28;20101;-23
2023/04/09 05:25:01;;;;;;;57.45;33.17;;;7.20;99.90;;;;;;5053558;28;20513;-23
2023/04/09 05:27:27;;;;;;;59.08;32.70;;;7.30;99.90;;;;;;5070943;28;20060;-23
2023/04/09 05:29:53;;;;;;;54.95;32.30;;;7.30;99.90;;;;;;5046653;28;20051;-23
2023/04/09 05:32:19;;;;;;;54.05;32.63;;;7.30;99.90;;;;;;5069834;28;20561;-23
2023/04/09 05:34:44;;;;;;;58.45;34.00;;;7.30;99.90;;;;;;5071687;28;20090;-23
2023/04/09 05:37:10;;;;;;;52.85;32.67;;;7.40;99.90;;;;;;5051848;28;20112;-22
2023/04/09 05:39:36;;;;;;;55.10;32.97;;;7.30;99.90;;;;;;5052457;28;20121;-23
2023/04/09 05:42:02;;;;;;;57.00;32.78;;;7.40;99.90;;;;;;5052789;28;20056;-23
2023/04/09 05:44:27;;;;;;;63.45;34.70;;;7.40;99.90;;;;;;5071554;28;20075;-23
2023/04/09 05:46:53;;;;;;;60.17;32.22;;;7.40;99.90;;;;;;5054834;28;20098;-23
2023/04/09 05:49:19;;;;;;;55.78;33.15;;;7.40;99.90;;;;;;5052817;28;20071;-22
2023/04/09 05:51:45;;;;;;;58.53;34.90;;;7.50;99.90;;;;;;5070690;28;20131;-23
2023/04/09 05:54:11;;;;;;;59.42;32.92;;;7.50;99.90;;;;;;5069582;28;20045;-23
2023/04/09 05:56:36;;;;;;;50.08;31.02;;;7.50;99.90;;;;;;5053546;28;20051;-23
2023/04/09 05:59:02;;;;;;;50.22;30.83;;;7.60;99.90;;;;;;5052560;28;20526;-23
2023/04/09 06:01:28;;;;;;;49.40;30.42;;;7.60;99.90;;;;;;5070232;28;20052;-23
2023/04/09 06:03:54;;;;;;;51.17;31.25;;;7.60;99.90;;;;;;5053520;28;20514;-23
2023/04/09 06:06:20;;;;;;;54.05;29.95;;;7.60;99.90;;;;;;5053478;28;20048;-23
2023/04/09 06:08:46;;;;;;;44.85;29.70;;;7.60;99.90;;;;;;5071659;28;20038;-23
2023/04/09 06:11:12;;;;;;;46.45;28.98;;;7.70;99.90;;;;;;5052621;28;20078;-22
2023/04/09 06:13:38;;;;;;;45.47;27.55;;;7.70;99.90;;;;;;5053568;28;20067;-23
2023/04/09 06:16:05;;;;;;;46.55;29.30;;;7.80;99.90;;;;;;5072628;28;20487;-22
2023/04/09 06:18:31;;;;;;;53.15;31.70;;;7.80;99.90;;;;;;5075919;28;20037;-23
2023/04/09 06:21:07;;;;;;;46.15;30.08;;;7.80;99.90;;;;;;5076522;28;20044;-23
2023/04/09 06:23:34;;;;;;;50.67;31.25;;;7.90;99.90;;;;;;5072849;28;20086;-23
2023/04/09 06:26:00;;;;;;;50.33;31.50;;;7.90;99.90;;;;;;5073052;28;20118;-23
2023/04/09 06:28:28;;;;;;;51.00;31.83;;;7.90;99.90;;;;;;5055973;28;20052;-23
2023/04/09 06:30:54;;;;;;;52.85;30.98;;;8.00;99.90;;;;;;5072586;28;20487;-23
2023/04/09 06:33:20;;;;;;;50.42;30.58;;;8.00;99.90;;;;;;5072587;28;20410;-23
2023/04/09 06:35:47;;;;;;;44.15;30.25;;;8.00;99.90;;;;;;5054987;28;20048;-23
2023/04/09 06:38:13;;;;;;;46.85;29.73;;;8.00;99.90;;;;;;5039664;28;20079;-23
2023/04/09 06:40:39;;;;;;;41.65;28.33;;;8.10;99.90;;;;;;5054991;28;20549;-23
2023/04/09 06:43:05;;;;;;;42.95;26.15;;;8.10;99.90;;;;;;5055244;28;20119;-22
2023/04/09 06:45:32;;;;;;;37.60;22.90;;;8.10;99.90;;;;;;5073231;28;20505;-23
2023/04/09 06:47:59;;;;;;;32.50;22.17;;;8.20;99.90;;;;;;5053132;28;20387;-23
2023/04/09 06:50:24;;;;;;;31.55;22.90;;;8.20;99.90;;;;;;5073036;28;20083;-23
2023/04/09 06:52:51;;;;;;;31.52;22.60;;;8.20;1.00;;;;;;5073564;28;20083;-23
2023/04/09 06:55:17;;;;;;;34.13;23.08;;;8.20;1.00;;;;;;5072604;28;20498;-23
2023/04/09 06:57:43;;;;;;;34.70;22.17;;;8.20;1.00;;;;;;5069531;28;20129;-23
2023/04/09 07:00:09;;;;;;;34.60;22.83;;;8.20;1.00;;;;;;5072734;28;20040;-23
2023/04/09 07:02:35;;;;;;;34.67;22.85;;;8.20;1.00;;;;;;5055444;28;20470;-23
2023/04/09 07:05:02;;;;;;;34.83;24.25;;;8.20;1.00;;;;;;5072095;28;20482;-23
2023/04/09 07:07:28;;;;;;;34.55;23.20;;;8.20;1.00;;;;;;5072537;28;20051;-23
2023/04/09 07:09:54;;;;;;;35.28;24.50;;;8.30;1.00;;;;;;5057350;28;20045;-23
2023/04/09 07:12:46;;;;;;;37.15;24.00;;;8.30;1.00;;;;;;5075339;28;20056;-23
2023/04/09 07:15:12;;;;;;;34.30;23.63;;;8.30;99.90;;;;;;5054777;28;20053;-23
2023/04/09 07:17:38;;;;;;;33.75;23.40;;;8.40;1.00;;;;;;5075125;28;20391;-23
2023/04/09 07:20:04;;;;;;;36.70;24.58;;;8.40;99.90;;;;;;5075067;28;20048;-23
2023/04/09 07:22:30;;;;;;;37.42;24.40;;;8.50;99.90;;;;;;5075131;28;20052;-23
2023/04/09 07:24:56;;;;;;;39.33;23.40;;;8.50;99.90;;;;;;5057388;28;20099;-23
2023/04/09 07:27:23;;;;;;;31.67;21.95;;;8.50;99.90;;;;;;5031166;28;1263623;-24
2023/04/09 07:29:49;;;;;;;35.90;24.42;;;8.50;99.90;;;;;;5076953;28;20049;-23
2023/04/09 07:32:16;;;;;;;37.35;24.73;;;8.60;99.90;;;;;;5076382;28;20386;-23
2023/04/09 07:34:44;;;;;;;34.88;23.15;;;8.60;99.90;;;;;;5059259;28;20091;-23
2023/04/09 07:37:11;;;;;;;32.95;22.83;;;8.60;99.90;;;;;;5058676;28;20044;-23
2023/04/09 07:39:37;;;;;;;35.80;24.95;;;8.70;99.90;;;;;;5076000;28;20045;-23
2023/04/09 07:42:03;;;;;;;41.65;25.70;;;8.60;53.80;;;;;;5075596;28;20136;-23
2023/04/09 07:44:33;;;;;;;39.28;25.35;;;8.70;79.40;;;;;;5058234;28;20536;-24
2023/04/09 07:46:59;;;;;;;36.30;24.77;;;8.80;99.90;;;;;;5076407;28;20118;-24
2023/04/09 07:49:25;;;;;;;37.35;24.42;;;8.70;53.30;;;;;;5075986;28;20447;-25
2023/04/09 07:51:51;;;;;;;37.72;24.73;;;8.80;11.60;;;;;;5075720;28;20048;-24
2023/04/09 07:54:18;;;;;;;37.67;25.00;;;8.80;1.00;;;;;;5057770;28;20510;-23
2023/04/09 07:56:44;;;;;;;36.42;24.48;;;8.80;1.00;;;;;;5057746;28;20486;-23
2023/04/09 07:59:10;;;;;;;41.03;27.02;;;8.90;42.40;;;;;;5076085;28;20044;-23
2023/04/09 08:01:35;;;;;;;42.47;26.70;;;9.00;99.90;;;;;;5076019;28;20491;-23
2023/04/09 08:04:01;;;;;;;37.60;25.35;;;9.00;24.90;;;;;;5075736;28;20048;-23
2023/04/09 08:06:27;;;;;;;41.53;27.33;;;9.00;1.00;;;;;;5057660;28;20483;-23
2023/04/09 08:08:52;;;;;;;40.65;26.83;;;9.10;59.80;;;;;;5075490;28;20131;-23
2023/04/09 08:11:23;;;;;;;41.67;25.67;;;9.20;11.70;;;;;;5075364;28;20052;-24
2023/04/09 08:13:53;;;;;;;42.47;25.50;;;9.30;99.90;;;;;;5075909;28;20098;-24
2023/04/09 08:16:20;;;;;;;38.50;25.75;;;9.40;57.00;;;;;;5057443;28;20102;-24
2023/04/09 08:18:46;;;;;;;37.53;23.65;;;9.50;1.00;;;;;;5040987;28;20049;-24
2023/04/09 08:21:12;;;;;;;38.42;25.15;;;9.60;1.00;;;;;;5074833;28;20501;-24
2023/04/09 08:23:38;;;;;;;36.70;24.15;;;9.60;1.00;;;;;;5075095;28;20049;-23
2023/04/09 08:26:03;;;;;;;41.03;26.27;;;9.60;99.90;;;;;;5074818;28;20059;-23
2023/04/09 08:28:29;;;;;;;38.42;25.30;;;9.70;99.90;;;;;;5074985;28;20040;-23
2023/04/09 08:30:55;;;;;;;40.50;26.77;;;9.70;99.90;;;;;;5074967;28;20186;-23
2023/04/09 08:33:21;;;;;;;39.55;25.15;;;9.70;99.90;;;;;;5075476;28;20469;-23
2023/04/09 08:35:46;;;;;;;38.78;26.10;;;9.90;99.90;;;;;;5057036;28;20055;-24
2023/04/09 08:38:13;;;;;;;38.85;25.85;;;9.80;99.90;;;;;;5073621;28;20064;-24
2023/04/09 08:40:39;;;;;;;39.88;26.13;;;9.90;99.90;;;;;;5075056;28;20055;-23
2023/04/09 08:43:06;;;;;;;40.78;26.63;;;9.90;99.90;;;;;;5057135;28;20056;-24
2023/04/09 08:45:32;;;;;;;41.72;27.45;;;10.00;99.90;;;;;;5074633;28;20085;-24
2023/04/09 08:48:02;;;;;;;43.15;27.92;;;10.10;99.90;;;;;;5074605;28;20394;-23
2023/04/09 08:50:32;;;;;;;42.47;26.70;;;10.20;99.90;;;;;;5075097;28;20045;-24
2023/04/09 08:53:02;;;;;;;38.50;26.50;;;10.30;99.90;;;;;;5074858;28;20067;-24
2023/04/09 08:55:30;;;;;;;40.00;27.08;;;10.40;99.90;;;;;;5075014;28;20051;-24
2023/04/09 08:57:57;;;;;;;37.65;25.67;;;10.40;99.90;;;;;;5074363;28;20048;-24
2023/04/09 09:00:23;;;;;;;38.33;25.75;;;10.50;72.90;;;;;;5074378;28;20475;-24
2023/04/09 09:03:08;;;;;;;39.40;26.20;;;10.40;1.00;;;;;;5075175;28;20049;-24
2023/04/09 09:05:39;;;;;;;39.75;25.20;;;10.40;1.00;;;;;;5074924;28;20083;-24
2023/04/09 09:08:09;;;;;;;36.97;25.48;;;10.40;14.80;;;;;;5074821;28;20098;-24
2023/04/09 09:10:43;;;;;;;38.92;26.77;;;10.40;1.00;;;;;;5074253;28;20437;-24
2023/04/09 09:13:24;;;;;;;39.17;25.13;;;10.30;1.00;;;;;;5074180;28;20550;-24
2023/04/09 09:15:54;;;;;;;39.60;26.58;;;10.30;1.00;;;;;;5074060;28;20049;-24
2023/04/09 09:18:21;;;;;;;40.47;27.45;;;10.50;42.20;;;;;;5073964;28;20040;-24
2023/04/09 09:20:47;;;;;;;38.65;26.23;;;10.60;1.00;;;;;;5057231;28;20071;-24
2023/04/09 09:23:12;;;;;;;39.20;26.98;;;10.80;19.30;;;;;;5039775;28;20048;-24
2023/04/09 09:25:40;;;;;;;37.00;26.08;;;10.90;1.00;;;;;;5073653;28;20080;-24
2023/04/09 09:28:08;;;;;;;38.38;25.92;;;10.90;1.00;;;;;;5073862;28;20044;-24
2023/04/09 09:30:35;;;;;;;38.15;25.73;;;10.90;99.90;;;;;;5073956;28;20050;-24
2023/04/09 09:33:05;;;;;;;36.65;24.05;;;11.00;1.00;;;;;;5074455;28;20056;-25
2023/04/09 09:35:49;;;;;;;38.88;26.15;;;11.00;99.90;;;;;;5074607;28;20048;-24
2023/04/09 09:38:15;;;;;;;38.60;25.70;;;11.20;1.00;;;;;;5073645;28;20043;-24
2023/04/09 09:40:41;;;;;;;35.22;24.40;;;11.30;1.00;;;;;;5073748;28;20051;-24
2023/04/09 09:43:07;;;;;;;36.25;25.10;;;11.40;1.00;;;;;;5073702;28;20105;-24
2023/04/09 09:45:35;;;;;;;34.60;23.27;;;11.50;99.90;;;;;;5073517;28;20037;-24
2023/04/09 09:48:01;;;;;;;38.58;25.30;;;11.60;99.90;;;;;;5073673;28;20044;-24
2023/04/09 09:50:31;;;;;;;35.55;24.85;;;11.80;99.90;;;;;;5073507;28;20059;-24
2023/04/09 09:53:05;;;;;;;35.38;26.15;;;11.90;99.90;;;;;;5056188;28;20055;-25
2023/04/09 09:55:40;;;;;;;35.22;23.92;;;12.00;54.20;;;;;;5073615;28;20051;-24
2023/04/09 09:58:16;;;;;;;33.05;23.73;;;12.20;99.90;;;;;;5073520;28;20474;-24
2023/04/09 10:00:45;;;;;;;36.22;25.00;;;12.20;1.00;;;;;;5074358;28;20040;-24
2023/04/09 10:03:19;;;;;;;34.85;24.33;;;12.30;1.00;;;;;;5073781;28;20074;-24
2023/04/09 10:05:48;;;;;;;33.95;24.83;;;12.20;1.00;;;;;;5073517;28;20487;-24
2023/04/09 10:08:14;;;;;;;33.08;23.73;;;12.20;1.00;;;;;;5055737;28;20056;-24
2023/04/09 10:10:42;;;;;;;35.67;24.98;;;12.10;1.00;;;;;;5055739;28;20048;-24
2023/04/09 10:13:28;;;;;;;33.67;23.23;;;12.20;1.00;;;;;;5074283;28;20052;-24
2023/04/09 10:15:55;;;;;;;32.65;23.38;;;12.30;43.10;;;;;;5039506;28;20222;-24
2023/04/09 10:18:21;;;;;;;33.33;24.00;;;12.40;99.90;;;;;;5056075;28;20094;-24
2023/04/09 10:21:17;;;;;;;33.88;24.25;;;12.40;99.90;;;;;;5073163;28;20445;-24
2023/04/09 10:23:47;;;;;;;32.55;23.05;;;12.50;99.90;;;;;;5019257;28;20100;-24
2023/04/09 10:26:12;;;;;;;34.97;23.08;;;12.70;1.00;;;;;;5073217;28;20083;-24
2023/04/09 10:28:38;;;;;;;33.30;24.25;;;13.00;99.90;;;;;;5055599;28;20554;-24
2023/04/09 10:31:06;;;;;;;31.38;23.80;;;;;;;;;;5073822;28;20390;-24
2023/04/09 10:33:34;;;;;;;30.90;23.40;;;13.50;99.90;;;;;;5055366;28;20167;-24
2023/04/09 10:36:03;;;;;;;28.50;22.42;;;15.20;99.90;;;;;;5073489;28;20056;-25
2023/04/09 10:38:37;;;;;;;29.98;21.95;;;15.30;99.90;;;;;;5073634;28;20044;-24
2023/04/09 10:41:13;;;;;;;30.10;22.58;;;15.80;99.90;;;;;;5055529;28;20062;-25
2023/04/09 10:43:39;;;;;;;26.73;20.38;;;16.70;99.90;;;;;;5073200;28;20048;-25
2023/04/09 10:46:24;;;;;;;28.45;21.30;;;16.70;99.90;;;;;;5055479;28;20052;-24
2023/04/09 10:49:16;;;;;;;27.13;21.33;;;17.00;62.60;;;;;;5056034;28;20052;-24
2023/04/09 10:51:49;;;;;;;25.23;20.17;;;16.60;99.90;;;;;;5073410;28;20051;-24
2023/04/09 10:54:33;;;;;;;28.63;21.20;;;16.30;1.00;;;;;;5073185;28;20087;-24
2023/04/09 10:57:08;;;;;;;24.52;19.63;;;16.00;1.00;;;;;;5073015;28;20052;-24
2023/04/09 10:59:44;;;;;;;29.08;20.75;;;15.90;1.00;;;;;;5072896;28;20048;-25
2023/04/09 11:02:38;;;;;;;28.27;22.10;;;16.00;1.00;;;;;;5057348;28;20467;-25
2023/04/09 11:05:29;;;;;;;28.58;21.80;;;15.80;99.90;;;;;;5076626;28;20048;-24
2023/04/09 11:08:03;;;;;;;26.23;20.92;;;16.50;1.00;;;;;;5077175;28;20045;-25
2023/04/09 11:10:30;;;;;;;25.77;19.73;;;17.00;99.90;;;;;;5077147;28;20051;-25
2023/04/09 11:12:55;;;;;;;27.70;21.23;;;17.10;99.90;;;;;;5076459;28;20044;-25
2023/04/09 11:15:21;;;;;;;26.88;20.25;;;16.90;99.90;;;;;;5058615;28;20055;-25
2023/04/09 11:17:47;;;;;;;26.23;21.00;;;17.30;99.90;;;;;;5059482;28;20051;-25
2023/04/09 11:20:15;;;;;;;25.65;20.55;;;17.60;99.90;;;;;;5058745;28;20048;-25
2023/04/09 11:22:40;;;;;;;26.17;20.27;;;18.30;99.90;;;;;;5076861;28;20398;-26
2023/04/09 11:25:06;;;;;;;23.95;19.63;;;18.50;99.90;;;;;;5076168;28;20131;-25
2023/04/09 11:27:43;;;;;;;24.73;20.08;;;18.70;19.10;;;;;;5073408;28;20090;-25
2023/04/09 11:30:09;;;;;;;24.70;19.83;;;18.40;1.00;;;;;;5074868;28;20470;-25
2023/04/09 11:32:35;;;;;;;25.33;19.90;;;18.80;77.30;;;;;;5075137;28;20406;-25
2023/04/09 11:35:01;;;;;;;24.23;19.92;;;19.10;25.00;;;;;;5075926;28;20044;-25
2023/04/09 11:37:27;;;;;;;25.92;19.95;;;;;;;;;;5060908;28;20414;-25
2023/04/09 11:39:53;;;;;;;24.88;19.33;;;19.60;1.00;;;;;;5077252;28;20402;-26
2023/04/09 11:42:24;;;;;;;21.25;17.98;;;20.30;1.00;;;;;;5080929;28;20490;-25
2023/04/09 11:44:51;;;;;;;25.08;20.48;;;20.50;1.00;;;;;;5075930;28;20091;-25
2023/04/09 11:47:18;;;;;;;24.20;19.13;;;20.00;1.00;;;;;;5075841;28;20449;-25
2023/04/09 11:49:46;;;;;;;23.13;18.75;;;19.90;1.00;;;;;;5076357;28;20045;-26
2023/04/09 11:52:15;;;;;;;26.10;20.58;;;20.30;1.00;;;;;;5075027;28;20094;-25
2023/04/09 11:54:41;;;;;;;24.33;19.13;;;20.30;1.00;;;;;;5073769;28;20109;-25
2023/04/09 11:57:07;;;;;;;22.58;18.50;;;20.30;1.00;;;;;;5074645;28;20059;-26
2023/04/09 11:59:33;;;;;;;24.75;18.85;;;20.20;1.00;;;;;;5056670;28;20037;-26
2023/04/09 12:01:59;;;;;;;21.02;18.30;;;20.10;1.00;;;;;;5075594;28;20044;-26
2023/04/09 12:04:25;;;;;;;23.67;19.15;;;20.30;1.00;;;;;;5058694;28;20073;-26
2023/04/09 12:06:56;;;;;;;21.20;18.27;;;20.50;1.00;;;;;;5041530;28;20139;-26
2023/04/09 12:09:22;;;;;;;20.88;18.10;;;20.70;1.00;;;;;;5074841;28;20115;-25
2023/04/09 12:11:48;;;;;;;21.65;17.63;;;21.00;1.00;;;;;;5074482;28;20175;-26
2023/04/09 12:14:15;;;;;;;22.90;19.05;;;20.40;99.90;;;;;;5074130;28;20044;-26
2023/04/09 12:16:43;;;;;;;22.67;18.10;;;20.10;99.90;;;;;;5057635;28;20094;-26
2023/04/09 12:19:10;;;;;;;22.33;17.55;;;19.90;99.90;;;;;;5056566;28;20144;-26
2023/04/09 12:21:49;;;;;;;21.48;17.40;;;20.30;99.90;;;;;;5074338;28;20049;-26
2023/04/09 12:24:17;;;;;;;23.73;17.92;;;20.20;99.90;;;;;;5075095;28;20056;-26
2023/04/09 12:26:45;;;;;;;21.38;18.35;;;19.50;99.90;;;;;;5074995;28;20060;-25
2023/04/09 12:29:12;;;;;;;23.27;18.42;;;19.70;99.90;;;;;;5075093;28;20040;-25
2023/04/09 12:31:37;;;;;;;24.35;17.58;;;20.00;99.90;;;;;;5073903;28;20054;-26
2023/04/09 12:34:03;;;;;;;21.60;17.45;;;19.50;99.90;;;;;;5074901;28;20098;-26
2023/04/09 12:36:29;;;;;;;21.15;17.35;;;19.00;99.90;;;;;;5074865;28;20347;-26
2023/04/09 12:38:55;;;;;;;25.20;19.58;;;18.70;99.90;;;;;;5074777;28;20131;-26
2023/04/09 12:41:20;;;;;;;23.52;18.58;;;18.60;99.90;;;;;;5073927;28;20109;-25
2023/04/09 12:43:47;;;;;;;24.15;17.83;;;19.00;99.90;;;;;;5074756;28;20494;-26